Adelaide, California
Current Conditions -  °F | °C
As of 1:53 PM on Sunday 23 Nov 2014 (Local Time) from KPRB Reporting Station
Clear Clear  
Wind Chill: 65°   Ceiling: Unl
Heat Index: 65°   Visibility: 10mi
Dew Point: 39°   Wind: 0mph
Humidity: 39%   Direction: NA
Pressure: 30.24"   Gusts: NA
Location:  35.6618°N, 120.707°W
Report Text: KPRB 232153Z AUTO 00000KT 10SM CLR 18/04 A3024 RMK AO2 SLP238 T01830039 TSNO
Loading
Personal Weather Stations






























Interactive Weather Map New forecast layout! Learn more

10-Day Weather Forecast

Advertisements
Track Severe Weather on mobile